Terminal Aerodrome Forecast
Issued by NWS

Home | Current Version | Previous Version | Text Only | Print | Product List | Glossary On
Versions: 1 2 3 4 5 6 7 8 9 10 11 12 13
000
FTUS45 KTFX 232338
TAFHLN
TAF
KHLN 232338Z 2400/2424 23011G20KT P6SM SCT040 BKN080
      TEMPO 2403/2406 -SHRA SCT015 BKN040
     FM240600 27016G34KT P6SM VCSH SCT020 OVC050
     FM241200 26010KT P6SM SCT060 BKN120
     FM241900 27021G29KT P6SM SCT120=

USA.gov is the U.S. government's official web portal to all federal, state and local government web resources and services.